Time;durP1;ratioP1;P1;durP2;ratioP2;P2;SDS_P1;SDS_P2;PMS_P1;PMS_P2;Temp;Humidity;BMP_temperature;BMP_pressure;BME280_temperature;BME280_humidity;BME280_pressure;Samples;Min_cycle;Max_cycle;Signal;HPM_P1;HPM_P2
2024/03/21 00:02:17;;;;;;;11.10;7.70;;;;;;;10.41;100.00;100654.34;5121475;27;20523;-72
2024/03/21 00:04:44;;;;;;;10.60;7.38;;;;;;;10.40;100.00;100649.97;5093709;28;20078;-71
2024/03/21 00:07:11;;;;;;;8.07;6.95;;;;;;;10.38;100.00;100646.56;5093971;28;20093;-71
2024/03/21 00:09:38;;;;;;;12.98;7.65;;;;;;;10.32;100.00;100638.88;5075719;28;20067;-72
2024/03/21 00:12:08;;;;;;;10.57;7.40;;;;;;;10.35;100.00;100648.47;5093001;28;20104;-72
2024/03/21 00:14:35;;;;;;;13.65;8.82;;;;;;;10.31;100.00;100641.56;5070661;28;20047;-74
2024/03/21 00:17:02;;;;;;;13.93;9.60;;;;;;;10.24;100.00;100650.69;5072621;28;20051;-71
2024/03/21 00:19:28;;;;;;;14.63;8.82;;;;;;;10.17;100.00;100645.63;5081409;27;20067;-71
2024/03/21 00:21:56;;;;;;;11.75;8.60;;;;;;;10.13;100.00;100641.38;5100934;27;20092;-72
2024/03/21 00:24:22;;;;;;;15.68;9.13;;;;;;;10.07;100.00;100641.63;5115054;27;20527;-71
2024/03/21 00:26:50;;;;;;;13.82;9.07;;;;;;;10.02;100.00;100650.69;5111067;27;20529;-73
2024/03/21 00:29:17;;;;;;;16.38;9.05;;;;;;;9.97;100.00;100648.22;5116271;27;20501;-72
2024/03/21 00:31:46;;;;;;;10.90;8.00;;;;;;;9.81;100.00;100628.59;5112594;27;20103;-74
2024/03/21 00:34:14;;;;;;;13.57;8.82;;;;;;;9.92;100.00;100650.16;5120532;27;20066;-71
2024/03/21 00:36:41;;;;;;;14.43;8.32;;;;;;;9.81;100.00;100633.88;5112290;27;20039;-72
2024/03/21 00:39:07;;;;;;;11.18;8.18;;;;;;;9.59;100.00;100606.59;5103340;27;20126;-71
2024/03/21 00:41:34;;;;;;;11.57;8.90;;;;;;;9.46;100.00;100590.31;5096548;27;20062;-69
2024/03/21 00:44:04;;;;;;;12.82;8.70;;;;;;;9.72;100.00;100632.47;5116390;27;20031;-72
2024/03/21 00:46:31;;;;;;;11.48;7.93;;;;;;;9.77;100.00;100643.72;5114239;27;20047;-73
2024/03/21 00:48:58;;;;;;;14.25;8.13;;;;;;;9.75;100.00;100634.16;5111887;27;20050;-71
2024/03/21 00:51:24;;;;;;;16.33;8.48;;;;;;;9.70;100.00;100641.38;5121132;27;20082;-69
2024/03/21 00:53:50;;;;;;;14.02;8.93;;;;;;;9.66;100.00;100639.78;5110992;27;20047;-71
2024/03/21 00:56:16;;;;;;;12.73;8.65;;;;;;;9.56;100.00;100628.72;5096928;27;20126;-71
2024/03/21 00:58:43;;;;;;;11.43;7.75;;;;;;;9.61;100.00;100637.31;5099660;27;20027;-72
2024/03/21 01:01:11;;;;;;;12.48;8.25;;;;;;;9.60;100.00;100637.41;5106159;27;20043;-71
2024/03/21 01:03:40;;;;;;;11.02;7.95;;;;;;;9.58;100.00;100641.88;5116409;27;20116;-72
2024/03/21 01:06:06;;;;;;;15.52;8.90;;;;;;;9.38;100.00;100614.41;5094870;27;20580;-72
2024/03/21 01:08:34;;;;;;;11.70;8.50;;;;;;;9.48;100.00;100634.28;5088278;27;20210;-70
2024/03/21 01:11:01;;;;;;;12.32;8.38;;;;;;;9.48;100.00;100639.56;5098852;27;20527;-71
2024/03/21 01:13:28;;;;;;;13.60;8.23;;;;;;;9.48;100.00;100638.69;5115207;27;20035;-70
2024/03/21 01:15:54;;;;;;;14.63;8.70;;;;;;;9.46;100.00;100630.84;5064378;28;20154;-71
2024/03/21 01:18:25;;;;;;;12.90;8.80;;;;;;;9.34;100.00;100606.66;5081084;27;21027;-72
2024/03/21 01:20:53;;;;;;;11.80;7.93;;;;;;;9.38;100.00;100625.00;5073280;28;20101;-71
2024/03/21 01:23:20;;;;;;;16.02;9.57;;;;;;;8.85;100.00;100546.91;5077969;27;20123;-73
2024/03/21 01:25:46;;;;;;;13.35;9.75;;;;;;;9.07;100.00;100596.22;5073487;28;20031;-70
2024/03/21 01:28:13;;;;;;;11.10;9.15;;;;;;;9.26;100.00;100635.19;5077044;27;20050;-71
2024/03/21 01:30:39;;;;;;;12.82;9.52;;;;;;;9.23;100.00;100641.44;5077513;28;20098;-72
2024/03/21 01:33:06;;;;;;;15.15;10.35;;;;;;;9.25;100.00;100639.59;5074143;27;20053;-71
2024/03/21 01:35:31;;;;;;;15.00;10.02;;;;;;;9.24;100.00;100635.22;5074853;28;20449;-71
2024/03/21 01:38:00;;;;;;;15.02;10.25;;;;;;;9.20;100.00;100630.97;5091365;28;20122;-71
2024/03/21 01:40:25;;;;;;;15.15;10.15;;;;;;;9.16;100.00;100634.63;5068127;28;20571;-71
2024/03/21 01:42:52;;;;;;;14.65;10.95;;;;;;;9.13;100.00;100638.25;5086083;28;20048;-72
2024/03/21 01:45:18;;;;;;;16.50;10.90;;;;;;;9.10;100.00;100640.16;5087658;28;20576;-76
2024/03/21 01:47:45;;;;;;;12.90;10.57;;;;;;;9.07;100.00;100637.63;5063460;28;20058;-71
2024/03/21 01:50:12;;;;;;;13.35;10.40;;;;;;;9.07;100.00;100640.28;5090000;27;20071;-71
2024/03/21 01:52:41;;;;;;;14.00;10.85;;;;;;;9.07;100.00;100635.00;5091528;28;20071;-71
2024/03/21 01:55:14;;;;;;;14.45;10.70;;;;;;;9.10;100.00;100632.25;5073610;28;20059;-72
2024/03/21 01:57:41;;;;;;;15.05;11.52;;;;;;;9.12;100.00;100638.34;5101607;28;20149;-70
2024/03/21 02:00:08;;;;;;;16.55;11.10;;;;;;;9.07;100.00;100632.34;5091008;28;20044;-70
2024/03/21 02:02:36;;;;;;;13.77;11.50;;;;;;;8.97;100.00;100621.25;5072400;28;20071;-71
2024/03/21 02:05:03;;;;;;;15.23;11.80;;;;;;;8.99;100.00;100639.69;5088510;28;20074;-76
2024/03/21 02:07:32;;;;;;;17.05;11.90;;;;;;;8.98;100.00;100632.66;5068440;28;20066;-71
2024/03/21 02:09:58;;;;;;;15.43;11.43;;;;;;;8.99;100.00;100637.03;5076850;27;20062;-71
2024/03/21 02:12:46;;;;;;;14.45;11.02;;;;;;;9.01;100.00;100637.84;5061509;28;20054;-70
2024/03/21 02:15:12;;;;;;;16.73;11.98;;;;;;;9.00;100.00;100634.34;5086258;27;20062;-70
2024/03/21 02:17:40;;;;;;;16.15;11.73;;;;;;;8.96;100.00;100630.13;5108146;27;20182;-70
2024/03/21 02:20:07;;;;;;;15.95;11.43;;;;;;;8.66;100.00;100581.03;5092277;27;20480;-71
2024/03/21 02:22:38;;;;;;;18.08;12.00;;;;;;;8.93;100.00;100630.22;5091987;27;20083;-70
2024/03/21 02:25:05;;;;;;;17.70;12.40;;;;;;;8.85;100.00;100612.91;5123167;27;20078;-74
2024/03/21 02:27:32;;;;;;;17.85;12.45;;;;;;;8.83;100.00;100617.38;5102784;27;20082;-72
2024/03/21 02:29:59;;;;;;;20.83;13.15;;;;;;;8.86;100.00;100630.47;5122144;27;20600;-71
2024/03/21 02:32:26;;;;;;;18.08;12.77;;;;;;;8.85;100.00;100631.41;5094170;27;20074;-73
2024/03/21 02:34:52;;;;;;;19.70;13.50;;;;;;;8.78;100.00;100626.34;5104873;27;20512;-70
2024/03/21 02:37:19;;;;;;;16.65;11.75;;;;;;;8.85;100.00;100644.59;5118147;27;20059;-70
2024/03/21 02:39:50;;;;;;;17.73;11.75;;;;;;;8.83;100.00;100638.50;5116836;27;20070;-72
2024/03/21 02:42:18;;;;;;;18.13;12.75;;;;;;;8.84;100.00;100645.53;5106024;27;20117;-71
2024/03/21 02:44:43;;;;;;;20.35;12.73;;;;;;;8.79;100.00;100648.34;5109179;27;20517;-72
2024/03/21 02:47:12;;;;;;;15.10;11.85;;;;;;;8.60;100.00;100624.38;5119296;27;20047;-70
2024/03/21 02:49:38;;;;;;;20.50;13.50;;;;;;;8.73;100.00;100653.84;5122453;27;20069;-72
2024/03/21 02:52:06;;;;;;;17.05;12.80;;;;;;;8.66;100.00;100645.25;5108774;27;20154;-70
2024/03/21 02:54:32;;;;;;;20.27;11.75;;;;;;;8.78;100.00;100655.41;5122270;27;20070;-71
2024/03/21 02:57:01;;;;;;;13.60;11.27;;;;;;;8.72;100.00;100638.91;5115654;27;20043;-71
2024/03/21 02:59:27;;;;;;;16.35;12.15;;;;;;;8.87;100.00;100654.19;5102583;27;20122;-73
2024/03/21 03:01:53;;;;;;;18.38;12.55;;;;;;;8.87;100.00;100650.69;5107984;27;20108;-70
2024/03/21 03:04:19;;;;;;;18.13;13.02;;;;;;;8.87;100.00;100651.56;5112604;27;20059;-74
2024/03/21 03:06:49;;;;;;;17.20;12.35;;;;;;;8.65;100.00;100621.56;5120355;27;20146;-72
2024/03/21 03:09:15;;;;;;;19.10;13.20;;;;;;;8.70;100.00;100633.66;5113023;27;20057;-71
2024/03/21 03:11:42;;;;;;;17.05;13.27;;;;;;;8.78;100.00;100652.75;5098664;27;20051;-72
2024/03/21 03:14:10;;;;;;;17.55;12.20;;;;;;;8.76;100.00;100653.72;5122230;27;20078;-72
2024/03/21 03:16:37;;;;;;;25.20;14.20;;;;;;;8.78;100.00;100655.41;5102607;27;20631;-74
2024/03/21 03:19:05;;;;;;;18.05;12.80;;;;;;;8.65;100.00;100635.63;5121385;27;20035;-70
2024/03/21 03:21:31;;;;;;;17.02;11.80;;;;;;;8.60;100.00;100632.28;5083988;27;20145;-72
2024/03/21 03:23:57;;;;;;;17.85;11.68;;;;;;;8.61;100.00;100627.88;5124950;27;20139;-70
2024/03/21 03:26:30;;;;;;;15.73;12.10;;;;;;;8.65;100.00;100624.22;5099233;27;20740;-72
2024/03/21 03:28:55;;;;;;;15.70;12.15;;;;;;;8.85;100.00;100649.88;5108591;27;20449;-71
2024/03/21 03:31:25;;;;;;;16.63;11.90;;;;;;;8.85;100.00;100644.59;5119503;27;20127;-73
2024/03/21 03:36:37;;;;;;;18.17;12.55;;;;;;;8.60;100.00;100627.00;5099710;27;20051;-73
2024/03/21 03:39:04;;;;;;;17.67;11.70;;;;;;;8.64;100.00;100639.19;5081673;28;20474;-71
2024/03/21 03:41:31;;;;;;;17.40;11.88;;;;;;;8.76;100.00;100649.31;5090528;27;20050;-72
2024/03/21 03:43:59;;;;;;;18.63;11.93;;;;;;;8.78;100.00;100649.25;5119566;27;20071;-70
2024/03/21 03:46:27;;;;;;;16.27;11.90;;;;;;;8.77;100.00;100653.69;5101772;27;20079;-70
2024/03/21 03:48:53;;;;;;;15.77;11.63;;;;;;;8.63;100.00;100628.69;5123939;27;20063;-71
2024/03/21 03:51:20;;;;;;;17.50;12.30;;;;;;;8.68;100.00;100632.88;5109813;27;20043;-71
2024/03/21 03:53:46;;;;;;;16.85;12.23;;;;;;;8.72;100.00;100654.75;5118065;27;20074;-73
2024/03/21 03:56:13;;;;;;;16.25;12.18;;;;;;;8.51;100.00;100619.38;5122282;27;20061;-71
2024/03/21 03:58:38;;;;;;;15.55;11.13;;;;;;;8.50;100.00;100612.38;5120183;27;20126;-72
2024/03/21 04:01:05;;;;;;;14.88;10.60;;;;;;;8.70;100.00;100648.66;5088016;27;20060;-71
2024/03/21 04:03:32;;;;;;;17.55;10.63;;;;;;;8.68;100.00;100639.91;5069909;27;20129;-72
2024/03/21 04:06:01;;;;;;;14.73;10.98;;;;;;;8.63;100.00;100632.19;5103701;27;20055;-70
2024/03/21 04:08:28;;;;;;;16.63;11.23;;;;;;;8.63;100.00;100639.25;5115777;27;20078;-71
2024/03/21 04:10:56;;;;;;;13.85;10.45;;;;;;;8.67;100.00;100660.19;5106510;27;20031;-70
2024/03/21 04:13:22;;;;;;;13.95;10.80;;;;;;;8.65;100.00;100647.97;5103228;28;20063;-71
2024/03/21 04:15:52;;;;;;;15.60;10.27;;;;;;;8.64;100.00;100651.53;5124484;27;20049;-71
2024/03/21 04:18:18;;;;;;;12.05;9.93;;;;;;;8.47;100.00;100622.22;5105716;28;20074;-70
2024/03/21 04:20:47;;;;;;;15.02;9.50;;;;;;;8.59;100.00;100643.75;5118899;28;20036;-71
2024/03/21 04:23:13;;;;;;;11.95;9.40;;;;;;;8.56;100.00;100649.13;5119980;27;20031;-70
2024/03/21 04:25:41;;;;;;;16.52;9.77;;;;;;;8.51;100.00;100645.78;5102769;28;20054;-71
2024/03/21 04:28:06;;;;;;;13.65;9.65;;;;;;;8.48;100.00;100655.59;5098290;28;20516;-70
2024/03/21 04:30:33;;;;;;;12.32;9.65;;;;;;;8.46;100.00;100657.44;5105390;28;20089;-70
2024/03/21 04:32:59;;;;;;;12.88;9.02;;;;;;;8.45;100.00;100656.56;5119907;27;20043;-71
2024/03/21 04:35:26;;;;;;;11.48;7.72;;;;;;;8.44;100.00;100654.84;5121294;28;20067;-70
2024/03/21 04:37:55;;;;;;;10.43;8.05;;;;;;;8.44;100.00;100660.13;5103235;28;20094;-73
2024/03/21 04:40:23;;;;;;;11.45;7.90;;;;;;;8.44;100.00;100652.22;5092504;28;20031;-71
2024/03/21 04:42:51;;;;;;;11.60;8.23;;;;;;;8.38;100.00;100641.84;5105823;28;20521;-71
2024/03/21 04:45:20;;;;;;;11.15;7.45;;;;;;;8.31;100.00;100640.31;5105766;28;20117;-70
2024/03/21 04:47:47;;;;;;;12.25;7.88;;;;;;;8.39;100.00;100656.75;5129282;27;20475;-72
2024/03/21 04:50:14;;;;;;;11.43;7.80;;;;;;;8.37;100.00;100667.38;5092340;28;20095;-70
2024/03/21 04:52:40;;;;;;;9.82;7.97;;;;;;;8.35;100.00;100658.63;5098645;28;20058;-71
2024/03/21 04:55:09;;;;;;;10.80;8.25;;;;;;;8.30;100.00;100668.47;5123113;27;20047;-70
2024/03/21 04:57:35;;;;;;;13.23;9.30;;;;;;;8.13;100.00;100649.69;5120292;28;20130;-73
2024/03/21 05:00:02;;;;;;;12.65;8.77;;;;;;;8.24;100.00;100667.81;5088958;28;20050;-70
2024/03/21 05:02:29;;;;;;;12.15;9.02;;;;;;;8.16;100.00;100648.75;5123258;28;20420;-71
2024/03/21 05:04:56;;;;;;;12.80;9.50;;;;;;;8.22;100.00;100664.34;5104279;27;20081;-71
2024/03/21 05:07:24;;;;;;;16.23;9.98;;;;;;;8.21;100.00;100660.84;5127580;27;20138;-70
2024/03/21 05:09:51;;;;;;;15.23;9.88;;;;;;;8.13;100.00;100656.75;5113224;27;20055;-71
2024/03/21 05:12:21;;;;;;;13.70;9.63;;;;;;;8.19;100.00;100673.22;5099144;27;20089;-72
2024/03/21 05:14:47;;;;;;;11.60;10.05;;;;;;;8.03;100.00;100641.19;5111727;27;20067;-69
2024/03/21 05:17:16;;;;;;;14.40;10.45;;;;;;;8.23;100.00;100674.84;5122633;27;20070;-70
2024/03/21 05:19:44;;;;;;;14.95;10.68;;;;;;;8.25;100.00;100674.81;5110054;27;20095;-70
2024/03/21 05:22:10;;;;;;;15.88;10.10;;;;;;;8.16;100.00;100661.94;5095465;27;20122;-71
2024/03/21 05:24:37;;;;;;;13.15;9.40;;;;;;;8.28;100.00;100691.41;5107930;27;20462;-70
2024/03/21 05:27:06;;;;;;;12.82;9.73;;;;;;;8.30;100.00;100694.84;5119701;27;20047;-70
2024/03/21 05:29:35;;;;;;;16.55;10.18;;;;;;;8.18;100.00;100666.25;5122859;27;20055;-71
2024/03/21 05:32:02;;;;;;;12.10;9.73;;;;;;;8.38;100.00;100698.13;5113027;27;20031;-70
2024/03/21 05:34:29;;;;;;;14.65;9.23;;;;;;;8.41;100.00;100695.38;5111342;27;21010;-70
2024/03/21 05:36:56;;;;;;;13.55;9.60;;;;;;;8.31;100.00;100671.97;5104798;27;20062;-70
2024/03/21 05:39:23;;;;;;;14.55;9.40;;;;;;;8.47;100.00;100698.75;5112816;27;20043;-71
2024/03/21 05:41:49;;;;;;;11.90;9.27;;;;;;;8.49;100.00;100699.56;5124266;27;20131;-70
2024/03/21 05:44:18;;;;;;;14.73;9.57;;;;;;;8.46;100.00;100695.25;5122713;27;20053;-69
2024/03/21 05:46:45;;;;;;;12.82;9.30;;;;;;;8.52;100.00;100710.00;5119928;27;20043;-70
2024/03/21 05:49:14;;;;;;;13.80;9.07;;;;;;;8.54;100.00;100710.81;5124956;27;20501;-70
2024/03/21 05:51:41;;;;;;;12.43;9.45;;;;;;;8.40;100.00;100700.72;5112521;27;20127;-71
2024/03/21 05:54:09;;;;;;;12.85;9.40;;;;;;;8.50;100.00;100725.88;5106703;27;20067;-70
2024/03/21 05:56:35;;;;;;;13.93;8.73;;;;;;;8.48;100.00;100724.22;5124265;27;20055;-71
2024/03/21 05:59:03;;;;;;;15.05;9.27;;;;;;;8.51;100.00;100729.38;5091901;27;20133;-70
2024/03/21 06:01:32;;;;;;;11.50;8.45;;;;;;;8.48;100.00;100730.38;5104359;27;20063;-70
2024/03/21 06:04:02;;;;;;;13.13;8.70;;;;;;;8.35;100.00;100715.81;5095723;27;20118;-70
2024/03/21 06:06:28;;;;;;;13.50;10.23;;;;;;;8.51;100.00;100742.56;5125246;27;20454;-73
2024/03/21 06:08:56;;;;;;;15.02;9.27;;;;;;;8.46;100.00;100729.56;5106046;27;20046;-71
2024/03/21 06:11:22;;;;;;;12.32;8.82;;;;;;;8.55;100.00;100731.00;5103420;27;20164;-71
2024/03/21 06:13:50;;;;;;;13.43;8.80;;;;;;;8.56;100.00;100732.75;5071982;27;20496;-71
2024/03/21 06:16:17;;;;;;;12.32;8.38;;;;;;;8.35;100.00;100698.22;5091505;27;20122;-71
2024/03/21 06:18:45;;;;;;;13.82;9.10;;;;;;;8.50;100.00;100723.25;5106426;27;20058;-70
2024/03/21 06:21:13;;;;;;;13.05;9.52;;;;;;;8.61;100.00;100731.69;5127701;27;20118;-70
2024/03/21 06:23:40;;;;;;;15.50;10.35;;;;;;;8.74;100.00;100727.72;5124363;27;20073;-70
2024/03/21 06:26:05;;;;;;;17.65;10.55;;;;;;;8.62;100.00;100695.59;5090780;27;20475;-71
2024/03/21 06:28:32;;;;;;;15.73;10.88;;;;;;;8.98;100.00;100741.84;5096289;27;20042;-73
2024/03/21 06:30:58;;;;;;;20.02;11.32;;;;;;;8.92;100.00;100710.38;5126147;27;20104;-72
2024/03/21 06:33:25;;;;;;;21.02;12.70;;;;;;;9.27;100.00;100748.75;5111065;27;20035;-71
2024/03/21 06:35:51;;;;;;;17.20;11.65;;;;;;;9.45;100.00;100734.84;5106815;27;20496;-72
2024/03/21 06:38:19;;;;;;;18.58;12.57;;;;;;;9.66;100.00;100734.97;5111046;27;20087;-72
2024/03/21 06:40:45;;;;;;;18.08;12.93;;;;;;;9.81;100.00;100740.53;5101461;27;20028;-70
2024/03/21 06:43:12;;;;;;;17.48;12.70;;;;;;;9.85;100.00;100751.88;5093881;27;20093;-70
2024/03/21 06:45:38;;;;;;;21.27;14.30;;;;;;;9.77;100.00;100751.28;5123958;27;20071;-71
2024/03/21 06:48:05;;;;;;;19.52;14.18;;;;;;;9.81;100.00;100751.13;5107177;27;20043;-73
2024/03/21 06:50:31;;;;;;;19.65;13.82;;;;;;;9.63;100.00;100735.06;5107721;27;20438;-71
2024/03/21 06:52:59;;;;;;;23.90;14.10;;;;;;;9.79;100.00;100760.03;5134167;27;20177;-70
2024/03/21 06:55:27;;;;;;;20.75;14.20;;;;;;;9.82;100.00;100758.13;5117172;27;20065;-71
2024/03/21 06:57:58;;;;;;;21.00;13.70;;;;;;;9.79;100.00;100768.81;5121057;27;20440;-70
2024/03/21 07:00:26;;;;;;;19.42;14.20;;;;;;;9.60;100.00;100724.66;5102087;27;20039;-71
2024/03/21 07:02:53;;;;;;;17.50;13.50;;;;;;;9.80;100.00;100753.81;5105158;27;20561;-74
2024/03/21 07:05:20;;;;;;;22.52;14.52;;;;;;;9.93;100.00;100770.94;5108583;28;20086;-70
2024/03/21 07:07:47;;;;;;;24.52;13.35;;;;;;;9.93;100.00;100770.94;5102691;27;20050;-71
2024/03/21 07:10:13;;;;;;;21.40;13.98;;;;;;;9.98;100.00;100762.84;5110477;27;20062;-70
2024/03/21 07:12:42;;;;;;;24.60;14.10;;;;;;;9.95;100.00;100763.81;5100894;27;20135;-73
2024/03/21 07:15:08;;;;;;;21.10;13.63;;;;;;;9.79;100.00;100720.34;5122734;27;20043;-70
2024/03/21 07:17:36;;;;;;;25.13;13.93;;;;;;;10.00;100.00;100740.69;5118752;27;20557;-70
2024/03/21 07:20:03;;;;;;;21.80;14.20;;;;;;;10.15;100.00;100755.09;5108946;27;20036;-70
2024/03/21 07:22:30;;;;;;;25.60;13.90;;;;;;;10.35;100.00;100780.81;5096466;27;20493;-72
2024/03/21 07:24:55;;;;;;;21.92;13.75;;;;;;;10.49;100.00;100786.44;5089307;27;20082;-71
2024/03/21 07:27:23;;;;;;;22.33;15.00;;;;;;;10.39;100.00;100758.59;5103541;28;20377;-71
2024/03/21 07:29:50;;;;;;;21.50;15.05;;;;;;;10.70;100.00;100800.59;5106084;27;20096;-73
2024/03/21 07:32:18;;;;;;;21.30;13.32;;;;;;;10.92;100.00;100792.59;5083228;27;20441;-71
2024/03/21 07:34:44;;;;;;;25.67;14.88;;;;;;;11.10;100.00;100805.06;5106060;27;20108;-73
2024/03/21 07:37:12;;;;;;;22.05;13.80;;;;;;;11.18;100.00;100802.94;5100543;27;20484;-71
2024/03/21 07:39:38;;;;;;;20.33;14.02;;;;;;;11.22;100.00;100802.75;5104187;27;20058;-71
2024/03/21 07:42:06;;;;;;;21.83;13.98;;;;;;;11.21;100.00;100806.31;5102572;27;20046;-71
2024/03/21 07:44:32;;;;;;;20.75;14.40;;;;;;;11.24;100.00;100808.00;5106091;27;20481;-72
2024/03/21 07:47:00;;;;;;;18.38;13.88;;;;;;;11.22;100.00;100816.00;5118254;27;20073;-72
2024/03/21 07:49:26;;;;;;;20.15;13.73;;;;;;;11.16;100.00;100784.47;5089879;27;20464;-71
2024/03/21 07:51:53;;;;;;;20.30;14.13;;;;;;;11.36;100.00;100785.38;5106953;27;20134;-70
2024/03/21 07:54:20;;;;;;;19.75;13.77;;;;;;;11.67;100.00;100806.09;5107084;27;20552;-70
2024/03/21 07:56:46;;;;;;;19.40;13.93;;;;;;;11.85;100.00;100814.13;5106302;27;20043;-72
2024/03/21 07:59:12;;;;;;;25.88;14.07;;;;;;;11.95;100.00;100817.25;5100659;27;20123;-71
2024/03/21 08:01:39;;;;;;;20.00;14.30;;;;;;;12.08;100.00;100806.91;5124187;27;20131;-71
2024/03/21 08:04:08;;;;;;;24.92;15.65;;;;;;;12.43;100.00;100822.03;5118238;27;20532;-70
2024/03/21 08:06:35;;;;;;;22.83;14.75;;;;;;;12.56;100.00;100819.66;5099581;27;20071;-72
2024/03/21 08:09:00;;;;;;;24.05;14.07;;;;;;;12.78;100.00;100830.94;5099909;27;20516;-71
2024/03/21 08:11:29;;;;;;;24.13;14.88;;;;;;;13.07;100.00;100833.94;5117245;27;20070;-72
2024/03/21 08:13:55;;;;;;;19.10;13.48;;;;;;;13.03;100.00;100814.66;5088563;27;20122;-73
2024/03/21 08:16:22;;;;;;;18.15;13.77;;;;;;;13.31;100.00;100836.28;5107870;28;20043;-71
2024/03/21 08:18:47;;;;;;;21.88;14.23;;;;;;;13.41;100.00;100838.44;5117831;27;20105;-72
2024/03/21 08:21:16;;;;;;;21.42;15.13;;;;;;;13.46;100.00;100852.38;5106950;28;20650;-70
2024/03/21 08:23:42;;;;;;;23.48;14.85;;;;;;;13.47;100.00;100852.31;5122429;27;20070;-70
2024/03/21 08:26:08;;;;;;;20.13;14.10;;;;;;;13.53;100.00;100862.63;5090499;28;20138;-71
2024/03/21 08:28:34;;;;;;;21.58;14.82;;;;;;;13.59;100.00;100849.00;5116263;28;20062;-70
2024/03/21 08:31:01;;;;;;;22.08;15.65;;;;;;;13.55;100.00;100825.28;5117783;27;20032;-71
2024/03/21 08:33:28;;;;;;;26.23;15.38;;;;;;;13.85;100.00;100852.09;5112553;27;20553;-72
2024/03/21 08:35:54;;;;;;;24.33;15.43;;;;;;;14.02;100.00;100852.91;5103116;28;20067;-72
2024/03/21 08:38:22;;;;;;;22.77;15.85;;;;;;;14.03;100.00;100853.75;5115422;28;20035;-72
2024/03/21 08:40:52;;;;;;;24.65;17.02;;;;;;;13.97;100.00;100854.97;5125179;27;20115;-69
2024/03/21 08:43:19;;;;;;;24.23;15.70;;;;;;;14.11;100.00;100843.56;5100356;27;20073;-71
2024/03/21 08:45:46;;;;;;;23.98;16.73;;;;;;;14.22;100.00;100850.97;5110956;27;20047;-71
2024/03/21 08:48:14;;;;;;;25.23;16.67;;;;;;;14.35;100.00;100852.00;5086680;27;20043;-71
2024/03/21 08:50:44;;;;;;;26.60;16.55;;;;;;;14.30;100.00;100838.09;5109911;27;20043;-71
2024/03/21 08:53:10;;;;;;;25.83;17.85;;;;;;;14.44;100.00;100848.03;5094871;27;20097;-70
2024/03/21 08:55:39;;;;;;;24.35;17.88;;;;;;;14.44;100.00;100830.22;5106223;27;20060;-71
2024/03/21 08:58:05;;;;;;;29.00;18.52;;;;;;;14.65;100.00;100860.97;5103485;27;20305;-70
2024/03/21 09:00:32;;;;;;;28.13;19.30;;;;;;;14.39;100.00;100816.25;5095443;27;20128;-71
2024/03/21 09:03:00;;;;;;;24.80;19.55;;;;;;;14.64;100.00;100861.91;5110496;27;20035;-71
2024/03/21 09:05:27;;;;;;;28.23;20.67;;;;;;;14.70;100.00;100868.72;5080889;27;20081;-70
2024/03/21 09:07:53;;;;;;;25.60;19.35;;;;;;;14.68;100.00;100844.81;5110651;27;20070;-70
2024/03/21 09:10:20;;;;;;;28.20;20.65;;;;;;;15.06;100.00;100876.44;5109340;27;20462;-73
2024/03/21 09:12:47;;;;;;;28.52;20.23;;;;;;;15.21;100.00;100880.88;5092452;27;20139;-73
2024/03/21 09:15:17;;;;;;;29.02;20.80;;;;;;;15.30;100.00;100866.97;5126740;27;20059;-69
2024/03/21 09:17:42;;;;;;;30.35;21.30;;;;;;;15.33;100.00;100887.28;5112153;27;20077;-71
2024/03/21 09:20:10;;;;;;;32.30;23.27;;;;;;;15.25;100.00;100890.44;5103825;27;20111;-71
2024/03/21 09:22:35;;;;;;;40.60;27.67;;;;;;;15.22;100.00;100893.28;5120300;27;20078;-70
2024/03/21 09:25:03;;;;;;;39.50;29.30;;;;;;;15.12;100.00;100876.06;5106888;27;20515;-71
2024/03/21 09:27:29;;;;;;;44.28;30.88;;;;;;;15.41;100.00;100890.38;5126067;27;20543;-71
2024/03/21 09:29:57;;;;;;;44.08;30.20;;;;;;;15.55;100.00;100890.47;5108600;27;20054;-72
2024/03/21 09:32:23;;;;;;;40.30;28.48;;;;;;;15.56;100.00;100894.00;5094423;27;20070;-70
2024/03/21 09:34:51;;;;;;;41.67;29.05;;;;;;;15.56;100.00;100905.53;5111257;27;20035;-74
2024/03/21 09:37:17;;;;;;;43.83;29.63;;;;;;;15.45;100.00;100890.09;5107294;27;20043;-70
2024/03/21 09:39:45;;;;;;;42.10;29.20;;;;;;;15.54;100.00;100907.38;5108963;27;20068;-70
2024/03/21 09:42:15;;;;;;;42.25;30.10;;;;;;;15.54;100.00;100909.19;5111088;27;20035;-71
2024/03/21 09:44:46;;;;;;;46.03;32.63;;;;;;;15.57;100.00;100920.59;5119017;27;20076;-70
2024/03/21 09:47:13;;;;;;;52.10;35.90;;;;;;;15.39;100.00;100938.50;5112487;27;20031;-70
2024/03/21 09:49:41;;;;;;;50.33;35.10;;;;;;;15.30;100.00;100933.69;5121653;27;20359;-71
2024/03/21 09:52:09;;;;;;;51.10;35.72;;;;;;;15.15;100.00;100937.25;5130352;27;20067;-71
2024/03/21 09:54:36;;;;;;;51.72;36.17;;;;;;;14.92;100.00;100914.56;5093165;27;20035;-72
2024/03/21 09:57:05;;;;;;;51.33;35.97;;;;;;;15.11;100.00;100935.69;5120497;27;20537;-71
2024/03/21 09:59:32;;;;;;;52.75;36.63;;;;;;;15.15;100.00;100947.91;5105213;27;20112;-71
2024/03/21 10:01:58;;;;;;;56.53;35.72;;;;;;;15.02;100.00;100926.41;5125726;27;20031;-69
2024/03/21 10:04:26;;;;;;;54.97;36.70;;;;;;;14.98;100.00;100951.53;5111474;27;20547;-73
2024/03/21 10:06:52;;;;;;;55.83;37.13;;;;;;;14.88;100.00;100939.69;5089873;27;20039;-72
2024/03/21 10:09:20;;;;;;;54.33;37.00;;;;;;;14.88;100.00;100942.34;5090873;27;20049;-70
2024/03/21 10:11:49;;;;;;;60.53;36.85;;;;;;;14.94;100.00;100943.81;5129680;27;20043;-71
2024/03/21 10:14:16;;;;;;;59.20;36.60;;;;;;;14.92;100.00;100953.72;5088854;27;20039;-71
2024/03/21 10:16:42;;;;;;;60.63;38.08;;;;;;;14.79;100.00;100952.69;5128169;27;20035;-73
2024/03/21 10:19:11;;;;;;;63.33;36.35;;;;;;;14.76;100.00;100953.69;5105059;27;20191;-70
2024/03/21 10:21:38;;;;;;;52.30;34.08;;;;;;;14.70;100.00;100954.88;5124076;27;20063;-70
2024/03/21 10:24:06;;;;;;;52.28;29.90;;;;;;;14.72;100.00;100946.81;5106805;27;20056;-71
2024/03/21 10:26:33;;;;;;;46.33;29.00;;;;;;;14.83;100.00;100952.41;5123711;27;20035;-71
2024/03/21 10:29:00;;;;;;;45.13;26.30;;;;;;;14.99;100.00;100969.25;5123314;27;20088;-70
2024/03/21 10:31:26;;;;;;;36.58;22.52;;;;;;;14.94;100.00;100957.16;5115805;27;20086;-72
2024/03/21 10:33:56;;;;;;;38.50;21.40;;;;;;;15.22;100.00;100973.31;5126505;27;20489;-71
2024/03/21 10:36:22;;;;;;;29.25;17.73;;;;;;;15.34;100.00;100966.41;5106254;27;20467;-72
2024/03/21 10:38:52;;;;;;;24.90;15.73;;;;;;;15.51;98.22;100976.97;5105672;27;20043;-70
2024/03/21 10:41:21;;;;;;;20.63;14.30;;;;;;;15.64;98.41;100977.13;5091669;27;20513;-70
2024/03/21 10:43:56;;;;;;;21.30;14.00;;;;;;;15.77;95.23;100978.13;5105136;27;20093;-73
2024/03/21 10:46:23;;;;;;;21.15;13.00;;;;;;;15.54;92.97;100984.81;5111334;27;20047;-70
2024/03/21 10:48:53;;;;;;;24.00;14.20;;;;;;;15.42;96.91;100980.19;5084628;27;20039;-73
2024/03/21 10:51:21;;;;;;;17.05;11.25;;;;;;;15.53;95.27;100991.09;5093376;27;20090;-70
2024/03/21 10:53:57;;;;;;;19.42;11.35;;;;;;;15.33;91.30;100932.66;5104081;27;20046;-71
2024/03/21 10:56:24;;;;;;;16.25;10.75;;;;;;;15.58;91.24;100962.34;5111465;27;20039;-71
2024/03/21 10:58:56;;;;;;;18.20;11.65;;;;;;;15.83;92.40;100991.13;5092406;27;20043;-70
2024/03/21 11:01:37;;;;;;;19.52;12.63;;;;;;;15.96;93.35;100988.59;5113054;27;20084;-70
2024/03/21 11:04:06;;;;;;;19.73;11.68;;;;;;;16.00;89.79;100990.13;5126815;27;20039;-71
2024/03/21 11:06:34;;;;;;;18.50;10.98;;;;;;;15.91;89.81;100982.66;5107190;27;20058;-70
2024/03/21 11:09:04;;;;;;;19.83;11.73;;;;;;;15.98;92.08;100989.34;5089294;27;20043;-70
2024/03/21 11:11:30;;;;;;;13.90;9.48;;;;;;;15.97;88.00;100979.63;5121510;27;20096;-70
2024/03/21 11:14:01;;;;;;;12.00;7.88;;;;;;;16.17;85.90;100995.31;5122209;27;20054;-69